Time;durP1;ratioP1;P1;durP2;ratioP2;P2;SDS_P1;SDS_P2;PMS_P1;PMS_P2;Temp;Humidity;BMP_temperature;BMP_pressure;BME280_temperature;BME280_humidity;BME280_pressure;Samples;Min_cycle;Max_cycle;Signal;HPM_P1;HPM_P2
2021/12/21 00:01:18;;;;;;;18.92;8.75;;;;;;;0.14;81.84;102788.22;5011622;28;20474;-64
2021/12/21 00:03:43;;;;;;;22.20;9.80;;;;;;;0.15;81.83;102788.19;4995097;28;20030;-64
2021/12/21 00:06:09;;;;;;;21.20;9.50;;;;;;;0.06;81.84;102787.41;4994879;28;20065;-63
2021/12/21 00:08:36;;;;;;;18.55;8.85;;;;;;;0.09;81.79;102787.38;5011008;28;20116;-63
2021/12/21 00:11:01;;;;;;;19.48;9.73;;;;;;;0.03;81.86;102787.44;5012288;28;20061;-64
2021/12/21 00:26:00;;;;;;;18.98;10.32;;;;;;;-0.26;82.20;102775.69;5008567;28;20132;-64
2021/12/21 00:28:26;;;;;;;21.40;10.00;;;;;;;-0.25;82.21;102768.88;4998982;28;20113;-65
2021/12/21 00:30:52;;;;;;;17.60;9.45;;;;;;;-0.28;82.11;102767.22;5007335;28;20468;-64
2021/12/21 00:33:18;;;;;;;19.27;9.88;;;;;;;-0.34;81.92;102768.09;4995433;28;20040;-65
2021/12/21 00:35:44;;;;;;;19.67;10.27;;;;;;;-0.41;81.93;102760.47;4995892;28;20026;-64
2021/12/21 00:38:09;;;;;;;15.32;9.13;;;;;;;-0.44;81.80;102766.44;5013588;28;20037;-65
2021/12/21 00:40:34;;;;;;;20.27;10.63;;;;;;;-0.44;82.26;102761.34;5003367;28;20482;-64
2021/12/21 00:43:00;;;;;;;23.05;10.25;;;;;;;-0.43;82.23;102757.94;5006773;28;20544;-64
2021/12/21 00:45:25;;;;;;;20.38;10.00;;;;;;;-0.50;82.30;102761.38;4994320;28;20033;-64
2021/12/21 00:47:51;;;;;;;20.42;9.85;;;;;;;-0.48;82.55;102763.91;5007990;28;20462;-66
2021/12/21 00:50:18;;;;;;;16.90;9.25;;;;;;;-0.56;82.53;102762.25;4994526;28;20475;-66
2021/12/21 00:52:47;;;;;;;19.58;10.43;;;;;;;-0.57;82.59;102760.56;4999178;28;20326;-64
2021/12/21 00:55:12;;;;;;;20.38;9.45;;;;;;;-0.54;82.19;102760.53;5011601;28;20053;-66
2021/12/21 00:57:38;;;;;;;18.80;9.55;;;;;;;-0.61;82.45;102763.97;5002799;28;20093;-64
2021/12/21 01:00:06;;;;;;;17.83;10.10;;;;;;;-0.63;82.37;102759.69;5001609;28;20466;-64
2021/12/21 01:02:31;;;;;;;16.37;8.90;;;;;;;-0.65;82.18;102754.63;5002428;28;20034;-64
2021/12/21 01:04:58;;;;;;;20.23;9.63;;;;;;;-0.63;82.54;102767.34;5012620;28;20363;-64
2021/12/21 01:07:31;;;;;;;18.60;9.52;;;;;;;-0.67;82.43;102763.97;5011319;28;20057;-64
2021/12/21 01:17:59;;;;;;;;;;;;;;;-0.54;82.26;102764.78;5012926;28;20045;-65
2021/12/21 01:20:31;;;;;;;20.00;10.35;;;;;;;-0.75;82.25;102763.16;5001128;28;19929;-64
2021/12/21 01:24:10;;;;;;;21.50;9.80;;;;;;;-0.77;82.85;102751.28;5005013;28;20077;-64
2021/12/21 01:34:02;;;;;;;20.45;9.55;;;;;;;-0.78;82.65;102754.69;5005800;28;20049;-66
2021/12/21 01:36:36;;;;;;;18.80;10.40;;;;;;;-0.84;82.81;102747.91;4995291;28;20026;-64
2021/12/21 01:39:13;;;;;;;22.55;10.95;;;;;;;-0.87;82.68;102742.81;5000553;28;20079;-65
2021/12/21 01:41:53;;;;;;;21.10;10.02;;;;;;;-0.87;82.32;102745.34;4999649;28;20496;-66
2021/12/21 01:50:00;;;;;;;19.30;10.20;;;;;;;-0.94;82.82;102738.59;5005897;28;20044;-65
2021/12/21 01:52:28;;;;;;;22.40;13.13;;;;;;;-0.96;82.59;102737.75;5003490;28;20026;-65
2021/12/21 01:54:54;;;;;;;26.92;12.15;;;;;;;-0.96;83.06;102736.06;4993076;28;20041;-64
2021/12/21 01:57:20;;;;;;;24.67;12.02;;;;;;;-1.04;83.21;102731.81;5003797;28;20390;-64
2021/12/21 01:59:47;;;;;;;24.15;12.38;;;;;;;-1.02;82.82;102741.16;4998885;28;20026;-64
2021/12/21 02:02:15;;;;;;;23.77;11.57;;;;;;;-1.04;83.07;102736.91;4998654;28;20545;-67
2021/12/21 02:04:41;;;;;;;22.90;11.57;;;;;;;-1.07;82.95;102736.09;5009749;28;20057;-65
2021/12/21 02:07:08;;;;;;;19.75;11.20;;;;;;;-1.09;82.65;102737.78;5005321;28;20847;-64
2021/12/21 02:09:37;;;;;;;22.50;10.55;;;;;;;-1.08;83.47;102728.47;5010953;28;20029;-65
2021/12/21 02:12:12;;;;;;;20.75;10.65;;;;;;;-1.08;82.94;102724.22;4998282;28;20062;-64
2021/12/21 02:14:39;;;;;;;18.88;10.70;;;;;;;-1.14;82.77;102716.59;4996958;28;20037;-64
2021/12/21 02:17:45;;;;;;;20.25;10.90;;;;;;;-1.14;83.14;102716.59;4992578;28;20389;-65
2021/12/21 02:20:15;;;;;;;17.50;10.38;;;;;;;-1.16;82.94;102708.09;5010953;28;20091;-64
2021/12/21 02:22:47;;;;;;;21.58;10.65;;;;;;;-1.20;82.60;102716.59;5006935;28;20027;-64
2021/12/21 02:30:51;;;;;;;20.58;11.02;;;;;;;-1.24;82.96;102719.16;4995285;28;20565;-64
2021/12/21 02:33:17;;;;;;;21.05;10.30;;;;;;;-1.28;82.75;102728.47;4999872;28;20030;-64
2021/12/21 02:35:43;;;;;;;22.73;10.57;;;;;;;-1.34;83.11;102731.03;5006269;28;20077;-64
2021/12/21 02:38:09;;;;;;;18.02;10.35;;;;;;;-1.37;82.71;102733.59;5005085;28;20101;-64
2021/12/21 02:40:35;;;;;;;21.90;10.18;;;;;;;-1.39;83.30;102730.19;4992813;28;20034;-64
2021/12/21 02:43:02;;;;;;;20.15;10.38;;;;;;;-1.43;83.36;102728.53;5007391;28;20061;-64
2021/12/21 02:45:28;;;;;;;22.50;10.02;;;;;;;-1.46;83.24;102728.50;5007975;28;20230;-64
2021/12/21 02:47:53;;;;;;;20.80;11.13;;;;;;;-1.49;82.98;102723.41;4991798;28;20053;-64
2021/12/21 02:50:19;;;;;;;17.65;10.43;;;;;;;-1.47;83.40;102719.19;4991543;28;20026;-64
2021/12/21 02:52:46;;;;;;;20.33;10.63;;;;;;;-1.52;83.13;102708.16;5001546;28;20422;-64
2021/12/21 02:55:12;;;;;;;20.58;10.30;;;;;;;-1.56;83.31;102720.03;5004404;28;20038;-64
2021/12/21 02:57:38;;;;;;;18.35;10.48;;;;;;;-1.59;83.18;102717.50;4993833;28;20746;-64
2021/12/21 03:00:05;;;;;;;19.60;10.27;;;;;;;-1.58;82.93;102718.34;5004667;28;20072;-63
2021/12/21 03:02:32;;;;;;;18.52;10.07;;;;;;;-1.63;83.10;102711.56;4993260;28;20057;-65
2021/12/21 03:04:57;;;;;;;21.75;10.18;;;;;;;-1.66;83.51;102703.94;5000802;28;20030;-64
2021/12/21 03:07:53;;;;;;;16.70;9.98;;;;;;;-1.63;82.97;102711.56;4999526;28;20110;-64
2021/12/21 03:10:12;;;;;;;19.33;9.90;;;;;;;-1.67;83.08;102703.94;5008540;28;20493;-63
2021/12/21 03:15:26;;;;;;;23.75;11.48;;;;;;;-1.73;83.27;102699.69;4998414;28;20041;-63
2021/12/21 03:17:52;;;;;;;18.75;10.50;;;;;;;-1.72;83.71;102703.94;5000217;28;20030;-64
2021/12/21 03:20:18;;;;;;;20.83;11.27;;;;;;;-1.73;83.12;102699.69;4990669;28;20498;-63
2021/12/21 03:22:44;;;;;;;18.65;9.75;;;;;;;-1.77;83.42;102703.09;4997136;28;20038;-64
2021/12/21 03:25:10;;;;;;;17.85;9.93;;;;;;;-1.79;83.32;102702.22;5003650;28;20273;-63
2021/12/21 03:27:35;;;;;;;17.48;10.00;;;;;;;-1.81;82.89;102701.41;5007328;28;20045;-63
2021/12/21 03:30:02;;;;;;;23.15;10.95;;;;;;;-1.84;82.57;102696.28;4994219;28;20375;-63
2021/12/21 03:32:27;;;;;;;21.58;10.95;;;;;;;-1.90;83.35;102697.16;4999068;28;20108;-66
2021/12/21 03:34:53;;;;;;;22.00;10.85;;;;;;;-1.92;83.25;102708.19;5005086;28;20455;-63
2021/12/21 03:37:18;;;;;;;21.83;10.75;;;;;;;-1.90;83.07;102698.84;4993963;28;20459;-65
2021/12/21 03:39:45;;;;;;;21.73;11.02;;;;;;;-1.92;83.78;102705.63;4999653;28;20076;-63
2021/12/21 03:42:13;;;;;;;18.30;11.00;;;;;;;-1.94;83.04;102702.25;4995380;28;20030;-65
2021/12/21 03:44:39;;;;;;;19.63;10.90;;;;;;;-1.95;83.19;102693.78;5009664;28;20040;-64
2021/12/21 03:47:08;;;;;;;21.83;11.10;;;;;;;-1.98;83.45;102693.75;5001873;28;20284;-63
2021/12/21 03:52:07;;;;;;;24.63;11.52;;;;;;;-1.98;84.13;102692.91;4992875;28;20113;-63
2021/12/21 03:54:32;;;;;;;21.42;11.88;;;;;;;-1.99;83.62;102691.22;4994380;28;20049;-63
2021/12/21 03:56:57;;;;;;;26.38;12.35;;;;;;;-2.01;84.34;102691.22;4997534;28;20058;-63
2021/12/21 03:59:23;;;;;;;26.55;12.75;;;;;;;-2.02;83.67;102697.16;5009760;28;20026;-63
2021/12/21 04:01:49;;;;;;;22.77;12.25;;;;;;;-2.05;83.39;102696.31;5006874;28;20370;-63
2021/12/21 04:04:19;;;;;;;24.85;12.20;;;;;;;-2.08;84.33;102691.22;5009195;28;20112;-63
2021/12/21 04:06:46;;;;;;;23.30;11.88;;;;;;;-2.14;83.95;102692.91;5001073;28;20054;-63
2021/12/21 04:09:12;;;;;;;24.27;12.95;;;;;;;-2.16;83.59;102684.44;4994091;28;20034;-64
2021/12/21 04:11:37;;;;;;;21.65;12.70;;;;;;;-2.18;83.89;102691.22;5002689;28;20104;-63
2021/12/21 04:14:03;;;;;;;23.17;11.93;;;;;;;-2.19;84.16;102689.50;4991430;28;20026;-63
2021/12/21 04:16:29;;;;;;;21.95;12.57;;;;;;;-2.22;84.02;102686.97;5003403;28;20037;-64
2021/12/21 04:18:54;;;;;;;22.65;12.20;;;;;;;-2.24;84.21;102691.19;5009797;28;20477;-64
2021/12/21 04:21:20;;;;;;;21.50;11.88;;;;;;;-2.30;84.09;102680.16;4995493;28;20030;-63
2021/12/21 04:23:45;;;;;;;20.52;11.68;;;;;;;-2.31;83.57;102693.72;5005632;28;20129;-63
2021/12/21 04:26:13;;;;;;;23.02;12.45;;;;;;;-2.39;84.12;102690.34;4996204;28;20058;-63
2021/12/21 04:28:39;;;;;;;21.65;11.48;;;;;;;-2.44;84.30;102690.31;5009100;28;20073;-62
2021/12/21 04:31:05;;;;;;;21.80;11.55;;;;;;;-2.46;84.51;102694.56;5012400;28;20030;-63
2021/12/21 04:33:31;;;;;;;20.05;11.95;;;;;;;-2.48;84.79;102691.13;5005474;28;20026;-63
2021/12/21 04:35:57;;;;;;;26.13;12.32;;;;;;;-2.53;84.17;102682.66;5009732;28;20030;-63
2021/12/21 04:38:28;;;;;;;21.17;11.57;;;;;;;-2.56;84.64;102688.59;4996140;28;20080;-63
2021/12/21 04:41:10;;;;;;;23.17;11.27;;;;;;;-2.63;83.62;102691.97;5005690;28;20063;-63
2021/12/21 04:43:35;;;;;;;21.58;12.02;;;;;;;-2.65;84.33;102688.56;5012840;28;20026;-63
2021/12/21 04:46:01;;;;;;;23.95;11.88;;;;;;;-2.71;84.41;102684.31;5010749;28;20025;-63
2021/12/21 04:48:27;;;;;;;24.10;12.35;;;;;;;-2.70;84.26;102673.28;5012349;28;20030;-63
2021/12/21 04:50:53;;;;;;;22.13;12.38;;;;;;;-2.70;84.73;102670.75;5000843;28;20068;-63
2021/12/21 04:53:18;;;;;;;27.40;12.18;;;;;;;-2.76;84.89;102670.72;4994858;28;20034;-63
2021/12/21 04:55:44;;;;;;;20.67;12.63;;;;;;;-2.76;84.78;102675.81;5006524;28;20053;-63
2021/12/21 04:58:10;;;;;;;24.10;12.15;;;;;;;-2.78;84.54;102677.50;4997396;28;20057;-64
2021/12/21 05:00:37;;;;;;;23.42;12.13;;;;;;;-2.79;84.97;102675.81;4999433;28;20054;-64
2021/12/21 05:03:03;;;;;;;22.52;11.20;;;;;;;-2.81;84.93;102672.44;5009663;28;20424;-66
2021/12/21 05:05:28;;;;;;;20.83;11.75;;;;;;;-2.88;83.91;102669.84;4991267;28;20034;-66
2021/12/21 05:08:06;;;;;;;21.45;12.10;;;;;;;-2.87;84.69;102669.84;5009961;28;20132;-64
2021/12/21 05:10:50;;;;;;;26.40;12.13;;;;;;;-2.85;84.40;102669.88;5011289;28;20485;-64
2021/12/21 05:13:17;;;;;;;22.55;12.13;;;;;;;-2.90;83.92;102672.38;5007857;28;20406;-63
2021/12/21 05:15:43;;;;;;;20.75;11.43;;;;;;;-2.97;84.68;102665.59;4995871;28;20034;-63
2021/12/21 05:18:13;;;;;;;32.50;17.63;;;;;;;-3.00;84.54;102673.19;4986125;28;20100;-63
2021/12/21 05:20:39;;;;;;;38.03;20.75;;;;;;;-3.02;84.53;102683.34;5005142;28;20034;-62
2021/12/21 05:23:05;;;;;;;29.95;15.85;;;;;;;-3.05;84.47;102682.47;4999054;28;20072;-63
2021/12/21 05:25:31;;;;;;;23.67;13.07;;;;;;;-3.10;84.46;102689.22;4993001;28;20034;-63
2021/12/21 05:27:57;;;;;;;22.20;12.90;;;;;;;-3.11;85.85;102687.50;5007493;28;20760;-63
2021/12/21 05:30:23;;;;;;;21.30;12.20;;;;;;;-3.13;85.13;102679.06;5009340;28;20034;-63
2021/12/21 05:32:50;;;;;;;21.67;12.35;;;;;;;-3.16;85.02;102684.09;4992670;28;20061;-65
2021/12/21 05:35:16;;;;;;;33.05;18.80;;;;;;;-3.16;84.56;102684.09;5008030;28;20080;-63
2021/12/21 05:37:41;;;;;;;30.33;17.60;;;;;;;-3.18;84.98;102675.66;5001487;28;20038;-64
2021/12/21 05:40:11;;;;;;;28.55;15.75;;;;;;;-3.21;85.46;102676.50;4992590;28;20097;-63
2021/12/21 05:42:37;;;;;;;47.97;26.40;;;;;;;-3.25;84.93;102679.84;5003771;28;20116;-64
2021/12/21 05:45:04;;;;;;;84.60;45.50;;;;;;;-3.27;85.50;102677.31;5009306;28;20439;-64
2021/12/21 05:47:29;;;;;;;116.32;59.30;;;;;;;-3.25;85.47;102680.69;5002575;28;20081;-66
2021/12/21 05:49:55;;;;;;;104.75;57.03;;;;;;;-3.27;85.24;102682.38;5006452;28;20026;-63
2021/12/21 05:52:20;;;;;;;106.68;55.53;;;;;;;-3.35;85.28;102673.88;5008977;28;20108;-63
2021/12/21 05:54:45;;;;;;;98.75;53.83;;;;;;;-3.30;85.79;102686.56;5009404;28;20409;-64
2021/12/21 05:57:11;;;;;;;66.85;38.47;;;;;;;-3.31;85.69;102690.81;5010269;28;20446;-64
2021/12/21 05:59:36;;;;;;;47.78;27.35;;;;;;;-3.34;85.76;102682.31;5011284;28;20379;-63
2021/12/21 06:02:02;;;;;;;44.70;24.85;;;;;;;-3.39;85.49;102682.28;4990226;28;20029;-65
2021/12/21 06:04:28;;;;;;;41.83;24.13;;;;;;;-3.40;85.50;102680.59;5010773;28;20030;-66
2021/12/21 06:06:53;;;;;;;32.33;20.65;;;;;;;-3.42;85.33;102679.75;5007652;28;20387;-63
2021/12/21 06:09:18;;;;;;;30.42;18.60;;;;;;;-3.46;85.25;102680.56;4993029;28;20026;-64
2021/12/21 06:11:52;;;;;;;32.03;17.77;;;;;;;-3.46;85.24;102690.69;5011671;28;20397;-64
2021/12/21 06:27:30;;;;;;;35.17;19.98;;;;;;;-3.60;85.63;102682.16;5007549;28;20131;-63
2021/12/21 06:29:56;;;;;;;35.20;18.90;;;;;;;-3.65;84.88;102682.13;5007155;28;20408;-63
2021/12/21 06:32:21;;;;;;;34.13;18.83;;;;;;;-3.65;86.14;102673.69;5002516;28;20120;-63
2021/12/21 06:34:47;;;;;;;31.95;18.45;;;;;;;-3.69;85.20;102672.78;5011217;28;20026;-63
2021/12/21 06:37:12;;;;;;;27.33;16.27;;;;;;;-3.69;86.24;102671.94;5001330;28;20033;-63
2021/12/21 06:39:38;;;;;;;27.73;16.67;;;;;;;-3.71;86.27;102671.94;5002931;28;20475;-64
2021/12/21 06:42:04;;;;;;;26.95;15.18;;;;;;;-3.72;86.21;102677.00;4995194;28;20475;-63
2021/12/21 06:44:30;;;;;;;28.58;15.75;;;;;;;-3.75;86.14;102672.75;5009423;28;20038;-63
2021/12/21 06:52:25;;;;;;;24.60;13.38;;;;;;;-3.74;86.07;102682.91;5000891;28;20151;-64
2021/12/21 06:54:50;;;;;;;26.52;15.02;;;;;;;-3.75;86.23;102678.66;5008495;28;20478;-63
2021/12/21 06:57:16;;;;;;;30.50;14.75;;;;;;;-3.76;85.83;102681.19;5009343;28;20064;-63
2021/12/21 06:59:41;;;;;;;26.27;15.27;;;;;;;-3.76;86.30;102681.19;5009134;28;20042;-63
2021/12/21 07:02:07;;;;;;;25.63;14.70;;;;;;;-3.81;85.57;102681.16;5004094;28;20029;-63
2021/12/21 07:04:33;;;;;;;36.03;19.73;;;;;;;-3.82;85.62;102679.47;4976859;28;20488;-63
2021/12/21 07:06:59;;;;;;;42.03;23.85;;;;;;;-3.86;85.82;102680.28;5010066;28;20048;-64
2021/12/21 07:09:35;;;;;;;30.42;17.77;;;;;;;-3.85;85.93;102687.03;5009435;28;20072;-62
2021/12/21 07:20:09;;;;;;;21.75;13.98;;;;;;;-3.94;85.91;102692.03;5002491;28;20085;-65
2021/12/21 07:22:35;;;;;;;24.52;14.27;;;;;;;-3.96;85.68;102693.69;5000054;28;20438;-63
2021/12/21 07:25:00;;;;;;;26.13;14.55;;;;;;;-3.98;86.30;102692.84;4996323;28;20125;-63
2021/12/21 07:27:26;;;;;;;26.67;14.40;;;;;;;-3.98;86.34;102699.59;5004991;28;20026;-62
2021/12/21 07:29:51;;;;;;;26.02;14.48;;;;;;;-4.01;86.33;102695.38;5004303;28;20596;-63
2021/12/21 07:32:16;;;;;;;28.30;15.13;;;;;;;-4.04;86.01;102695.31;4990780;28;20129;-62
2021/12/21 07:34:42;;;;;;;25.23;14.75;;;;;;;-4.07;85.91;102700.34;5007746;28;20037;-62
2021/12/21 07:37:09;;;;;;;25.75;14.25;;;;;;;-4.07;86.34;102705.41;5006230;28;20029;-63
2021/12/21 07:39:36;;;;;;;25.77;14.23;;;;;;;-4.08;86.66;102713.88;5008656;28;20902;-62
2021/12/21 07:42:02;;;;;;;28.15;14.95;;;;;;;-4.11;86.37;102708.78;5008597;28;20036;-62
2021/12/21 07:44:28;;;;;;;30.60;15.52;;;;;;;-4.13;86.28;102700.31;5009668;28;20442;-62
2021/12/21 07:46:53;;;;;;;27.02;15.10;;;;;;;-4.15;86.71;102707.06;5007833;28;20079;-62
2021/12/21 07:49:19;;;;;;;29.63;16.58;;;;;;;-4.16;86.71;102712.97;5010149;28;20033;-62
2021/12/21 07:51:44;;;;;;;33.78;16.65;;;;;;;-4.16;87.08;102718.03;5009645;28;20029;-63
2021/12/21 07:54:09;;;;;;;31.48;16.15;;;;;;;-4.16;86.80;102716.34;4996303;28;20044;-63
2021/12/21 07:56:35;;;;;;;27.55;15.75;;;;;;;-4.21;86.34;102707.84;5011973;28;20058;-63
2021/12/21 07:59:01;;;;;;;26.38;15.18;;;;;;;-4.16;86.63;102712.97;4998651;28;20032;-62
2021/12/21 08:01:27;;;;;;;23.98;14.60;;;;;;;-4.19;86.83;102715.44;5012549;28;20030;-62
2021/12/21 08:03:53;;;;;;;30.42;15.20;;;;;;;-4.20;86.33;102708.69;4999389;28;20061;-62
2021/12/21 08:06:19;;;;;;;23.85;14.70;;;;;;;-4.20;86.54;102718.81;5006044;28;20091;-63
2021/12/21 08:08:46;;;;;;;25.88;14.38;;;;;;;-4.21;86.41;102712.06;5002473;28;20502;-62
2021/12/21 08:13:39;;;;;;;31.90;17.45;;;;;;;-4.19;86.94;102711.22;5003719;28;20036;-63
2021/12/21 08:16:04;;;;;;;28.10;15.77;;;;;;;-4.17;87.42;102708.72;4995422;28;20463;-65
2021/12/21 08:18:30;;;;;;;29.27;16.30;;;;;;;-4.16;87.39;102711.28;4999888;28;20041;-62
2021/12/21 08:20:55;;;;;;;29.58;16.02;;;;;;;-4.14;87.32;102718.88;5012206;28;20105;-63
2021/12/21 08:23:21;;;;;;;27.27;15.40;;;;;;;-4.13;87.23;102710.44;4996199;28;20108;-63
2021/12/21 08:25:46;;;;;;;28.48;15.30;;;;;;;-4.12;87.42;102712.16;4992586;28;20035;-63
2021/12/21 08:28:11;;;;;;;27.58;15.73;;;;;;;-4.11;87.06;102708.78;5003774;28;20056;-63
2021/12/21 08:30:38;;;;;;;28.17;15.85;;;;;;;-4.08;87.47;102708.81;5013893;28;20109;-63
2021/12/21 08:33:04;;;;;;;25.75;15.70;;;;;;;-4.06;87.38;102712.22;5011019;28;20113;-62
2021/12/21 08:35:30;;;;;;;29.20;17.42;;;;;;;-4.04;87.29;102720.66;5010837;28;20168;-63
2021/12/21 08:38:03;;;;;;;27.95;17.05;;;;;;;-4.03;87.16;102712.22;5006665;28;20034;-63
2021/12/21 08:40:36;;;;;;;30.20;16.80;;;;;;;-3.99;87.44;102719.03;4995469;28;20453;-62
2021/12/21 08:43:03;;;;;;;30.42;17.48;;;;;;;-3.96;87.45;102719.03;5009144;28;20068;-65
2021/12/21 08:45:30;;;;;;;24.25;15.95;;;;;;;-3.94;87.76;102721.63;5003620;28;20033;-60
2021/12/21 08:47:58;;;;;;;31.10;16.92;;;;;;;-3.93;87.43;102725.84;5006663;28;20029;-61
2021/12/21 08:50:23;;;;;;;31.63;16.67;;;;;;;-3.91;87.36;102731.75;5002279;28;20096;-62
2021/12/21 08:52:49;;;;;;;28.20;16.02;;;;;;;-3.91;87.73;102732.59;4994320;28;20554;-61
2021/12/21 08:55:17;;;;;;;25.73;16.23;;;;;;;-3.88;87.48;102737.72;4993919;28;20113;-62
2021/12/21 08:57:42;;;;;;;28.05;16.42;;;;;;;-3.87;87.84;102731.81;4993494;28;20065;-61
2021/12/21 09:00:09;;;;;;;28.35;16.83;;;;;;;-3.83;88.04;102736.09;4986679;28;20023;-61
2021/12/21 09:02:36;;;;;;;32.00;17.02;;;;;;;-3.81;87.90;102739.47;4992774;28;20062;-61
2021/12/21 09:05:16;;;;;;;32.45;17.38;;;;;;;-3.79;88.23;102742.84;4981392;28;20023;-61
2021/12/21 09:07:46;;;;;;;27.00;16.88;;;;;;;-3.79;87.39;102742.84;4967758;28;20038;-60
2021/12/21 09:10:14;;;;;;;26.42;17.17;;;;;;;-3.74;87.79;102736.13;4991631;28;20030;-61
2021/12/21 09:12:40;;;;;;;29.45;17.52;;;;;;;-3.70;88.11;102743.78;4983873;28;20034;-63
2021/12/21 09:15:07;;;;;;;28.33;17.38;;;;;;;-3.69;87.44;102740.41;4993771;28;20169;-61
2021/12/21 09:17:33;;;;;;;31.75;17.95;;;;;;;-3.68;87.93;102747.16;4992951;28;20046;-61
2021/12/21 09:19:58;;;;;;;30.08;16.85;;;;;;;-3.69;87.91;102743.78;4993573;28;20038;-61
2021/12/21 09:22:24;;;;;;;26.27;15.98;;;;;;;-3.67;87.69;102742.13;4987687;28;20502;-61
2021/12/21 09:24:50;;;;;;;30.48;17.33;;;;;;;-3.58;88.13;102738.81;4984482;28;20379;-60
2021/12/21 09:27:16;;;;;;;31.88;18.70;;;;;;;-3.53;88.30;102737.16;4991884;28;20470;-61
2021/12/21 09:29:42;;;;;;;32.25;17.67;;;;;;;-3.47;88.71;102734.66;4975029;28;20033;-61
2021/12/21 09:32:08;;;;;;;29.42;18.90;;;;;;;-3.37;88.90;102726.28;4993106;28;20027;-61
2021/12/21 09:34:34;;;;;;;33.92;18.48;;;;;;;-3.29;89.03;102732.25;4987492;28;20038;-61
2021/12/21 09:36:59;;;;;;;32.35;17.88;;;;;;;-3.26;89.30;102728.91;4992849;28;20117;-62
2021/12/21 09:39:25;;;;;;;29.88;18.15;;;;;;;-3.21;88.73;102720.47;4992246;28;20455;-62
2021/12/21 09:41:51;;;;;;;30.35;19.00;;;;;;;-3.16;88.91;102719.63;4980493;28;20378;-61
2021/12/21 09:44:16;;;;;;;29.42;18.70;;;;;;;-3.12;88.78;102716.28;4991556;28;20026;-63
2021/12/21 09:46:42;;;;;;;30.13;18.23;;;;;;;-3.05;88.51;102718.00;4991933;28;20493;-61
2021/12/21 09:49:07;;;;;;;36.13;18.60;;;;;;;-3.03;88.93;102711.25;4992690;28;20133;-62
2021/12/21 09:51:33;;;;;;;30.45;18.88;;;;;;;-2.92;88.97;102714.72;4992479;28;20033;-62
2021/12/21 09:53:59;;;;;;;30.92;18.60;;;;;;;-2.84;89.24;102718.13;4992234;28;20522;-62
2021/12/21 09:56:25;;;;;;;33.45;19.90;;;;;;;-2.76;88.77;102713.91;4992696;28;20141;-61
2021/12/21 09:58:50;;;;;;;35.47;21.23;;;;;;;-2.67;89.58;102716.50;4994668;28;20476;-62
2021/12/21 10:01:18;;;;;;;32.72;21.13;;;;;;;-2.60;89.62;102717.34;5010784;28;20023;-62
2021/12/21 10:03:44;;;;;;;33.67;19.52;;;;;;;-2.55;89.03;102709.75;5008576;28;20029;-62
2021/12/21 10:06:11;;;;;;;33.92;19.92;;;;;;;-2.47;89.38;102724.16;5011118;28;20041;-61
2021/12/21 10:08:37;;;;;;;33.13;20.08;;;;;;;-2.42;88.85;102719.09;5010832;28;20034;-62
2021/12/21 10:11:06;;;;;;;30.33;19.27;;;;;;;-2.32;89.41;102723.38;5008255;28;20058;-62
2021/12/21 10:13:35;;;;;;;29.38;18.70;;;;;;;-2.26;89.30;102718.31;4998529;28;20030;-62
2021/12/21 10:16:04;;;;;;;29.42;18.70;;;;;;;-2.19;88.47;102714.91;5008429;28;20038;-63
2021/12/21 10:18:38;;;;;;;30.60;18.90;;;;;;;-2.13;88.90;102704.75;4984376;28;20053;-62
2021/12/21 10:21:06;;;;;;;29.30;19.23;;;;;;;-2.08;88.66;102698.84;5010579;28;20018;-61
2021/12/21 10:23:37;;;;;;;28.58;18.42;;;;;;;-1.97;89.29;102698.00;5008576;28;20041;-62
2021/12/21 10:26:11;;;;;;;32.92;19.50;;;;;;;-1.88;89.03;102699.72;5003312;28;20029;-62
2021/12/21 10:29:05;;;;;;;32.60;19.70;;;;;;;-1.80;89.05;102698.00;5007479;28;20407;-62
2021/12/21 10:31:39;;;;;;;26.98;17.38;;;;;;;-1.73;88.73;102699.69;5003923;28;20038;-62
2021/12/21 10:34:17;;;;;;;31.88;17.35;;;;;;;-1.66;88.20;102698.88;4998377;28;20033;-63
2021/12/21 10:36:42;;;;;;;32.42;18.60;;;;;;;-1.59;88.31;102696.31;5001269;28;20022;-62
2021/12/21 10:39:08;;;;;;;28.20;17.42;;;;;;;-1.55;88.46;102696.28;4999022;28;20038;-62
2021/12/21 10:41:39;;;;;;;37.88;18.50;;;;;;;-1.45;87.79;102699.66;4998734;28;20034;-62
2021/12/21 10:44:07;;;;;;;24.98;17.30;;;;;;;-1.39;87.36;102685.22;5005898;28;20029;-62
2021/12/21 10:46:35;;;;;;;29.00;17.77;;;;;;;-1.30;87.41;102692.00;5004079;28;20030;-62
2021/12/21 10:49:25;;;;;;;27.50;17.17;;;;;;;-1.21;87.20;102698.75;5004592;28;20026;-61
2021/12/21 10:52:04;;;;;;;27.48;17.75;;;;;;;-1.14;87.07;102698.75;4999796;28;20038;-61
2021/12/21 10:54:36;;;;;;;28.85;16.65;;;;;;;-1.05;87.23;102700.41;5007790;28;20069;-62
2021/12/21 10:57:10;;;;;;;26.27;16.75;;;;;;;-0.98;86.83;102696.16;5007056;28;20046;-63
2021/12/21 10:59:38;;;;;;;24.65;15.27;;;;;;;-0.90;86.10;102689.34;4991613;28;20133;-63
2021/12/21 11:02:16;;;;;;;24.20;14.93;;;;;;;-0.82;85.62;102692.69;4996158;28;20117;-62
2021/12/21 11:04:46;;;;;;;28.17;16.45;;;;;;;-0.76;86.01;102692.66;4984165;28;20045;-63
2021/12/21 11:08:03;;;;;;;23.83;15.25;;;;;;;-0.72;85.97;102694.34;5007903;28;20018;-63
2021/12/21 11:10:25;;;;;;;21.90;16.02;;;;;;;-0.68;85.96;102685.84;4993404;28;20044;-63
2021/12/21 11:12:54;;;;;;;22.15;14.15;;;;;;;-0.60;84.58;102683.25;5008289;28;20029;-66
2021/12/21 11:15:22;;;;;;;20.98;13.25;;;;;;;-0.52;84.00;102675.56;5008872;28;20065;-64
2021/12/21 11:17:48;;;;;;;19.02;12.63;;;;;;;-0.46;84.54;102675.50;5008507;28;20528;-63
2021/12/21 11:20:15;;;;;;;21.00;13.75;;;;;;;-0.41;84.07;102668.69;5000584;28;20034;-63
2021/12/21 11:22:43;;;;;;;20.17;14.27;;;;;;;-0.36;83.63;102662.72;5007496;28;20069;-63
2021/12/21 11:25:11;;;;;;;23.37;13.60;;;;;;;-0.30;84.08;102659.28;5005248;28;20030;-63
2021/12/21 11:27:38;;;;;;;22.70;14.55;;;;;;;-0.25;84.15;102643.94;5004296;28;20489;-64
2021/12/21 11:30:12;;;;;;;21.85;15.02;;;;;;;-0.20;84.11;102632.84;5007995;28;20116;-64
2021/12/21 11:32:44;;;;;;;23.65;15.63;;;;;;;-0.17;84.04;102632.84;4991520;28;20161;-64
2021/12/21 11:37:38;;;;;;;20.98;13.50;;;;;;;-0.10;83.85;102624.28;5004073;28;20118;-64
2021/12/21 11:40:06;;;;;;;20.70;13.80;;;;;;;-0.05;83.80;102622.53;4998704;28;20030;-64
2021/12/21 11:42:43;;;;;;;22.08;13.55;;;;;;;-0.04;83.56;102619.13;4990284;28;20466;-63
2021/12/21 11:45:15;;;;;;;21.35;13.30;;;;;;;0.03;83.46;102629.28;4991334;28;20152;-64
2021/12/21 11:47:50;;;;;;;20.45;13.45;;;;;;;0.08;83.32;102630.09;4983501;28;20034;-65
2021/12/21 11:50:16;;;;;;;18.83;13.30;;;;;;;0.11;82.69;102627.50;5004792;28;20410;-64
2021/12/21 11:52:47;;;;;;;21.00;12.75;;;;;;;0.15;82.44;102618.94;5006304;28;20033;-65
2021/12/21 11:55:14;;;;;;;20.65;13.15;;;;;;;0.22;82.35;102611.22;4992494;28;20472;-64
2021/12/21 11:57:46;;;;;;;21.20;13.55;;;;;;;0.27;82.49;102621.38;5003612;28;20050;-64
2021/12/21 12:00:14;;;;;;;21.88;13.40;;;;;;;0.31;82.01;102625.59;4999796;28;20595;-64
2021/12/21 12:02:42;;;;;;;19.10;12.85;;;;;;;0.37;81.34;102620.44;5008969;28;20103;-64
2021/12/21 12:05:17;;;;;;;21.20;12.13;;;;;;;0.39;81.18;102623.81;4993771;28;20042;-64
2021/12/21 12:07:43;;;;;;;20.20;12.60;;;;;;;0.41;81.19;102617.00;5004069;28;20109;-65
2021/12/21 12:10:21;;;;;;;17.98;12.30;;;;;;;0.44;81.38;102616.94;5007009;28;20041;-64
2021/12/21 12:12:46;;;;;;;19.80;12.15;;;;;;;0.45;81.46;102618.63;4988922;28;20372;-65
2021/12/21 12:15:15;;;;;;;19.75;12.02;;;;;;;0.51;80.90;102613.47;4986258;28;20483;-67
2021/12/21 12:17:46;;;;;;;23.63;12.38;;;;;;;0.55;80.80;102603.22;5000167;28;20121;-64
2021/12/21 12:20:12;;;;;;;20.58;12.68;;;;;;;0.59;80.93;102605.75;4994344;28;20073;-65
2021/12/21 12:22:46;;;;;;;18.67;12.23;;;;;;;0.62;80.89;102605.69;5003022;28;20065;-65
2021/12/21 12:25:23;;;;;;;17.35;11.25;;;;;;;0.67;79.70;102603.09;4993033;28;20124;-64
2021/12/21 12:27:51;;;;;;;18.45;11.32;;;;;;;0.66;80.54;102611.63;5002812;28;20104;-65
2021/12/21 12:30:20;;;;;;;19.40;12.38;;;;;;;0.68;80.61;102604.78;5000881;28;20022;-65
2021/12/21 12:32:59;;;;;;;18.10;12.45;;;;;;;0.71;80.69;102613.25;5004732;28;20048;-65